sensor_id;sensor_type;location;lat;lon;timestamp;temperature;humidity
18721;DHT22;9489;50.948;3.114;2024-03-02T00:00:49;6.50;99.90
18721;DHT22;9489;50.948;3.114;2024-03-02T00:03:16;6.50;99.90
18721;DHT22;9489;50.948;3.114;2024-03-02T00:05:42;6.60;99.90
18721;DHT22;9489;50.948;3.114;2024-03-02T00:08:08;6.50;99.90
18721;DHT22;9489;50.948;3.114;2024-03-02T00:10:38;6.50;99.90
18721;DHT22;9489;50.948;3.114;2024-03-02T00:13:08;6.50;99.90
18721;DHT22;9489;50.948;3.114;2024-03-02T00:15:40;6.60;99.90
18721;DHT22;9489;50.948;3.114;2024-03-02T00:18:15;6.60;99.90
18721;DHT22;9489;50.948;3.114;2024-03-02T00:20:41;6.60;99.90
18721;DHT22;9489;50.948;3.114;2024-03-02T00:23:08;6.60;99.90
18721;DHT22;9489;50.948;3.114;2024-03-02T00:25:40;6.60;99.90
18721;DHT22;9489;50.948;3.114;2024-03-02T00:33:25;6.50;99.90
18721;DHT22;9489;50.948;3.114;2024-03-02T00:35:51;6.50;99.90
18721;DHT22;9489;50.948;3.114;2024-03-02T00:38:17;6.40;99.90
18721;DHT22;9489;50.948;3.114;2024-03-02T00:40:44;6.40;99.90
18721;DHT22;9489;50.948;3.114;2024-03-02T00:43:45;6.40;99.90
18721;DHT22;9489;50.948;3.114;2024-03-02T00:46:15;6.30;99.90
18721;DHT22;9489;50.948;3.114;2024-03-02T00:49:00;6.30;99.90
18721;DHT22;9489;50.948;3.114;2024-03-02T00:51:27;6.30;99.90
18721;DHT22;9489;50.948;3.114;2024-03-02T00:53:55;6.30;99.90
18721;DHT22;9489;50.948;3.114;2024-03-02T00:56:22;6.20;99.90
18721;DHT22;9489;50.948;3.114;2024-03-02T00:58:49;6.20;99.90
18721;DHT22;9489;50.948;3.114;2024-03-02T01:01:14;6.20;99.90
18721;DHT22;9489;50.948;3.114;2024-03-02T01:03:41;6.20;99.90
18721;DHT22;9489;50.948;3.114;2024-03-02T01:06:08;6.20;99.90
18721;DHT22;9489;50.948;3.114;2024-03-02T01:08:37;6.20;99.90
18721;DHT22;9489;50.948;3.114;2024-03-02T01:11:03;6.10;99.90
18721;DHT22;9489;50.948;3.114;2024-03-02T01:13:29;6.10;99.90
18721;DHT22;9489;50.948;3.114;2024-03-02T01:15:55;6.10;99.90
18721;DHT22;9489;50.948;3.114;2024-03-02T01:18:21;6.10;99.90
18721;DHT22;9489;50.948;3.114;2024-03-02T01:20:50;6.00;99.90
18721;DHT22;9489;50.948;3.114;2024-03-02T01:23:24;6.00;99.90
18721;DHT22;9489;50.948;3.114;2024-03-02T01:25:50;6.00;99.90
18721;DHT22;9489;50.948;3.114;2024-03-02T01:28:17;6.00;99.90
18721;DHT22;9489;50.948;3.114;2024-03-02T01:30:43;6.00;99.90
18721;DHT22;9489;50.948;3.114;2024-03-02T01:33:09;6.00;99.90
18721;DHT22;9489;50.948;3.114;2024-03-02T01:35:35;6.10;99.90
18721;DHT22;9489;50.948;3.114;2024-03-02T01:38:01;6.10;99.90
18721;DHT22;9489;50.948;3.114;2024-03-02T01:40:28;6.00;99.90
18721;DHT22;9489;50.948;3.114;2024-03-02T01:42:54;6.00;99.90
18721;DHT22;9489;50.948;3.114;2024-03-02T01:45:21;6.10;99.90
18721;DHT22;9489;50.948;3.114;2024-03-02T01:47:47;6.10;99.90
18721;DHT22;9489;50.948;3.114;2024-03-02T01:50:13;6.00;99.90
18721;DHT22;9489;50.948;3.114;2024-03-02T01:52:39;6.00;99.90
18721;DHT22;9489;50.948;3.114;2024-03-02T01:55:05;6.00;99.90
18721;DHT22;9489;50.948;3.114;2024-03-02T01:57:32;6.00;99.90
18721;DHT22;9489;50.948;3.114;2024-03-02T01:59:58;6.00;99.90
18721;DHT22;9489;50.948;3.114;2024-03-02T02:02:24;5.90;99.90
18721;DHT22;9489;50.948;3.114;2024-03-02T02:04:49;5.90;99.90
18721;DHT22;9489;50.948;3.114;2024-03-02T02:07:15;5.90;99.90
18721;DHT22;9489;50.948;3.114;2024-03-02T02:09:44;5.90;99.90
18721;DHT22;9489;50.948;3.114;2024-03-02T02:12:10;5.90;99.90
18721;DHT22;9489;50.948;3.114;2024-03-02T02:14:36;5.90;99.90
18721;DHT22;9489;50.948;3.114;2024-03-02T02:17:02;5.90;99.90
18721;DHT22;9489;50.948;3.114;2024-03-02T02:19:28;5.90;99.90
18721;DHT22;9489;50.948;3.114;2024-03-02T02:21:54;5.90;99.90
18721;DHT22;9489;50.948;3.114;2024-03-02T02:24:20;5.90;99.90
18721;DHT22;9489;50.948;3.114;2024-03-02T02:26:46;5.90;99.90
18721;DHT22;9489;50.948;3.114;2024-03-02T02:29:11;5.80;99.90
18721;DHT22;9489;50.948;3.114;2024-03-02T02:31:40;5.80;99.90
18721;DHT22;9489;50.948;3.114;2024-03-02T02:34:06;5.80;99.90
18721;DHT22;9489;50.948;3.114;2024-03-02T02:36:33;5.80;99.90
18721;DHT22;9489;50.948;3.114;2024-03-02T02:39:02;5.80;99.90
18721;DHT22;9489;50.948;3.114;2024-03-02T02:41:32;5.80;99.90
18721;DHT22;9489;50.948;3.114;2024-03-02T02:43:58;5.80;99.90
18721;DHT22;9489;50.948;3.114;2024-03-02T02:46:23;5.80;99.90
18721;DHT22;9489;50.948;3.114;2024-03-02T02:48:49;5.80;99.90
18721;DHT22;9489;50.948;3.114;2024-03-02T02:51:16;5.80;99.90
18721;DHT22;9489;50.948;3.114;2024-03-02T02:53:42;5.80;99.90
18721;DHT22;9489;50.948;3.114;2024-03-02T02:56:08;5.80;99.90
18721;DHT22;9489;50.948;3.114;2024-03-02T02:58:34;5.70;99.90
18721;DHT22;9489;50.948;3.114;2024-03-02T03:01:01;5.70;99.90
18721;DHT22;9489;50.948;3.114;2024-03-02T03:03:26;5.80;99.90
18721;DHT22;9489;50.948;3.114;2024-03-02T03:05:52;5.70;99.90
18721;DHT22;9489;50.948;3.114;2024-03-02T03:08:17;5.70;99.90
18721;DHT22;9489;50.948;3.114;2024-03-02T03:10:43;5.70;99.90
18721;DHT22;9489;50.948;3.114;2024-03-02T03:13:09;5.70;99.90
18721;DHT22;9489;50.948;3.114;2024-03-02T03:15:35;5.70;99.90
18721;DHT22;9489;50.948;3.114;2024-03-02T03:18:05;5.70;99.90
18721;DHT22;9489;50.948;3.114;2024-03-02T03:20:30;5.70;99.90
18721;DHT22;9489;50.948;3.114;2024-03-02T03:22:57;5.70;99.90
18721;DHT22;9489;50.948;3.114;2024-03-02T03:25:22;5.70;99.90
18721;DHT22;9489;50.948;3.114;2024-03-02T03:27:48;5.70;99.90
18721;DHT22;9489;50.948;3.114;2024-03-02T03:30:14;5.70;99.90
18721;DHT22;9489;50.948;3.114;2024-03-02T03:32:39;5.70;99.90
18721;DHT22;9489;50.948;3.114;2024-03-02T03:35:06;5.70;99.90
18721;DHT22;9489;50.948;3.114;2024-03-02T03:37:32;5.80;99.90
18721;DHT22;9489;50.948;3.114;2024-03-02T03:40:04;5.70;99.90
18721;DHT22;9489;50.948;3.114;2024-03-02T03:42:38;5.70;99.90
18721;DHT22;9489;50.948;3.114;2024-03-02T03:45:05;5.70;99.90
18721;DHT22;9489;50.948;3.114;2024-03-02T03:47:34;5.70;99.90
18721;DHT22;9489;50.948;3.114;2024-03-02T03:49:59;5.70;99.90
18721;DHT22;9489;50.948;3.114;2024-03-02T03:52:25;5.70;99.90
18721;DHT22;9489;50.948;3.114;2024-03-02T03:54:51;5.70;99.90
18721;DHT22;9489;50.948;3.114;2024-03-02T03:57:17;5.70;99.90
18721;DHT22;9489;50.948;3.114;2024-03-02T03:59:43;5.70;99.90
18721;DHT22;9489;50.948;3.114;2024-03-02T04:02:09;5.60;99.90
18721;DHT22;9489;50.948;3.114;2024-03-02T04:04:37;5.70;99.90
18721;DHT22;9489;50.948;3.114;2024-03-02T04:07:02;5.60;99.90
18721;DHT22;9489;50.948;3.114;2024-03-02T04:09:28;5.60;99.90
18721;DHT22;9489;50.948;3.114;2024-03-02T04:11:54;5.60;99.90
18721;DHT22;9489;50.948;3.114;2024-03-02T04:14:19;5.60;99.90
18721;DHT22;9489;50.948;3.114;2024-03-02T04:16:45;5.60;99.90
18721;DHT22;9489;50.948;3.114;2024-03-02T04:19:10;5.60;99.90
18721;DHT22;9489;50.948;3.114;2024-03-02T04:21:36;5.60;99.90
18721;DHT22;9489;50.948;3.114;2024-03-02T04:24:02;5.60;99.90
18721;DHT22;9489;50.948;3.114;2024-03-02T04:26:28;5.60;99.90
18721;DHT22;9489;50.948;3.114;2024-03-02T04:28:54;5.60;99.90
18721;DHT22;9489;50.948;3.114;2024-03-02T04:31:20;5.60;99.90
18721;DHT22;9489;50.948;3.114;2024-03-02T04:33:46;5.60;99.90
18721;DHT22;9489;50.948;3.114;2024-03-02T04:36:11;5.60;99.90
18721;DHT22;9489;50.948;3.114;2024-03-02T04:38:38;5.60;99.90
18721;DHT22;9489;50.948;3.114;2024-03-02T04:41:07;5.60;99.90
18721;DHT22;9489;50.948;3.114;2024-03-02T04:43:33;5.50;99.90
18721;DHT22;9489;50.948;3.114;2024-03-02T04:45:59;5.50;99.90
18721;DHT22;9489;50.948;3.114;2024-03-02T04:48:25;5.50;99.90
18721;DHT22;9489;50.948;3.114;2024-03-02T04:50:50;5.50;99.90
18721;DHT22;9489;50.948;3.114;2024-03-02T04:53:16;5.50;99.90
18721;DHT22;9489;50.948;3.114;2024-03-02T04:55:42;5.50;99.90
18721;DHT22;9489;50.948;3.114;2024-03-02T04:58:08;5.50;99.90
18721;DHT22;9489;50.948;3.114;2024-03-02T05:00:34;5.50;99.90
18721;DHT22;9489;50.948;3.114;2024-03-02T05:03:00;5.50;99.90
18721;DHT22;9489;50.948;3.114;2024-03-02T05:05:26;5.50;99.90
18721;DHT22;9489;50.948;3.114;2024-03-02T05:07:52;5.50;99.90
18721;DHT22;9489;50.948;3.114;2024-03-02T05:10:18;5.50;99.90
18721;DHT22;9489;50.948;3.114;2024-03-02T05:12:43;5.50;99.90
18721;DHT22;9489;50.948;3.114;2024-03-02T05:15:10;5.50;99.90
18721;DHT22;9489;50.948;3.114;2024-03-02T05:17:36;5.50;99.90
18721;DHT22;9489;50.948;3.114;2024-03-02T05:20:04;5.40;99.90
18721;DHT22;9489;50.948;3.114;2024-03-02T05:22:29;5.40;99.90
18721;DHT22;9489;50.948;3.114;2024-03-02T05:24:55;5.40;99.90
18721;DHT22;9489;50.948;3.114;2024-03-02T05:27:22;5.40;99.90
18721;DHT22;9489;50.948;3.114;2024-03-02T05:29:47;5.40;99.90
18721;DHT22;9489;50.948;3.114;2024-03-02T05:32:13;5.40;99.90
18721;DHT22;9489;50.948;3.114;2024-03-02T05:34:39;5.40;99.90
18721;DHT22;9489;50.948;3.114;2024-03-02T05:37:04;5.40;99.90
18721;DHT22;9489;50.948;3.114;2024-03-02T05:39:30;5.40;99.90
18721;DHT22;9489;50.948;3.114;2024-03-02T05:41:56;5.30;99.90
18721;DHT22;9489;50.948;3.114;2024-03-02T05:44:21;5.30;99.90
18721;DHT22;9489;50.948;3.114;2024-03-02T05:46:47;5.30;99.90
18721;DHT22;9489;50.948;3.114;2024-03-02T05:49:13;5.40;99.90
18721;DHT22;9489;50.948;3.114;2024-03-02T05:51:39;5.40;99.90
18721;DHT22;9489;50.948;3.114;2024-03-02T05:54:04;5.40;99.90
18721;DHT22;9489;50.948;3.114;2024-03-02T05:56:30;5.30;99.90
18721;DHT22;9489;50.948;3.114;2024-03-02T05:58:55;5.40;99.90
18721;DHT22;9489;50.948;3.114;2024-03-02T06:01:45;5.40;99.90
18721;DHT22;9489;50.948;3.114;2024-03-02T06:04:12;5.40;99.90
18721;DHT22;9489;50.948;3.114;2024-03-02T06:06:38;5.40;99.90
18721;DHT22;9489;50.948;3.114;2024-03-02T06:09:05;5.40;99.90
18721;DHT22;9489;50.948;3.114;2024-03-02T06:11:36;5.40;99.90
18721;DHT22;9489;50.948;3.114;2024-03-02T06:14:03;5.40;99.90
18721;DHT22;9489;50.948;3.114;2024-03-02T06:16:29;5.40;99.90
18721;DHT22;9489;50.948;3.114;2024-03-02T06:18:55;5.40;99.90
18721;DHT22;9489;50.948;3.114;2024-03-02T06:21:23;5.40;99.90
18721;DHT22;9489;50.948;3.114;2024-03-02T06:23:49;5.40;99.90
18721;DHT22;9489;50.948;3.114;2024-03-02T06:26:15;5.40;99.90
18721;DHT22;9489;50.948;3.114;2024-03-02T06:28:40;5.40;99.90
18721;DHT22;9489;50.948;3.114;2024-03-02T06:31:06;5.40;99.90
18721;DHT22;9489;50.948;3.114;2024-03-02T06:33:32;5.40;99.90
18721;DHT22;9489;50.948;3.114;2024-03-02T06:35:57;5.40;99.90
18721;DHT22;9489;50.948;3.114;2024-03-02T06:38:23;5.40;99.90
18721;DHT22;9489;50.948;3.114;2024-03-02T06:40:49;5.50;99.90
18721;DHT22;9489;50.948;3.114;2024-03-02T06:43:14;5.50;99.90
18721;DHT22;9489;50.948;3.114;2024-03-02T06:45:40;5.50;99.90
18721;DHT22;9489;50.948;3.114;2024-03-02T06:48:07;5.50;99.90
18721;DHT22;9489;50.948;3.114;2024-03-02T06:50:33;5.50;99.90
18721;DHT22;9489;50.948;3.114;2024-03-02T06:53:00;5.50;99.90
18721;DHT22;9489;50.948;3.114;2024-03-02T06:55:25;5.50;99.90
18721;DHT22;9489;50.948;3.114;2024-03-02T06:57:51;5.50;99.90
18721;DHT22;9489;50.948;3.114;2024-03-02T07:00:18;5.50;99.90
18721;DHT22;9489;50.948;3.114;2024-03-02T07:02:45;5.50;99.90
18721;DHT22;9489;50.948;3.114;2024-03-02T07:05:11;5.50;99.90
18721;DHT22;9489;50.948;3.114;2024-03-02T07:07:37;5.50;99.90
18721;DHT22;9489;50.948;3.114;2024-03-02T07:10:04;5.60;99.90
18721;DHT22;9489;50.948;3.114;2024-03-02T07:12:30;5.60;99.90
18721;DHT22;9489;50.948;3.114;2024-03-02T07:14:57;5.60;99.90
18721;DHT22;9489;50.948;3.114;2024-03-02T07:17:29;5.60;99.90
18721;DHT22;9489;50.948;3.114;2024-03-02T07:19:55;5.60;99.90
18721;DHT22;9489;50.948;3.114;2024-03-02T07:22:20;5.70;99.90
18721;DHT22;9489;50.948;3.114;2024-03-02T07:24:46;5.70;99.90
18721;DHT22;9489;50.948;3.114;2024-03-02T07:27:12;5.70;99.90
18721;DHT22;9489;50.948;3.114;2024-03-02T07:29:38;5.80;99.90
18721;DHT22;9489;50.948;3.114;2024-03-02T07:32:05;5.80;99.90
18721;DHT22;9489;50.948;3.114;2024-03-02T07:34:33;5.80;99.90
18721;DHT22;9489;50.948;3.114;2024-03-02T07:36:59;5.80;99.90
18721;DHT22;9489;50.948;3.114;2024-03-02T07:39:25;5.80;99.90
18721;DHT22;9489;50.948;3.114;2024-03-02T07:41:51;5.90;99.90
18721;DHT22;9489;50.948;3.114;2024-03-02T07:44:17;5.90;99.90
18721;DHT22;9489;50.948;3.114;2024-03-02T07:46:45;5.90;99.90
18721;DHT22;9489;50.948;3.114;2024-03-02T07:49:18;5.90;99.90
18721;DHT22;9489;50.948;3.114;2024-03-02T07:51:44;6.00;99.90
18721;DHT22;9489;50.948;3.114;2024-03-02T07:54:09;6.00;99.90
18721;DHT22;9489;50.948;3.114;2024-03-02T07:56:35;6.10;99.90
18721;DHT22;9489;50.948;3.114;2024-03-02T07:59:01;6.10;99.90
18721;DHT22;9489;50.948;3.114;2024-03-02T08:01:31;6.20;99.90
18721;DHT22;9489;50.948;3.114;2024-03-02T08:03:58;6.20;99.90
18721;DHT22;9489;50.948;3.114;2024-03-02T08:06:25;6.30;99.90
18721;DHT22;9489;50.948;3.114;2024-03-02T08:08:59;6.40;99.90
18721;DHT22;9489;50.948;3.114;2024-03-02T08:11:26;6.50;99.90
18721;DHT22;9489;50.948;3.114;2024-03-02T08:13:52;6.60;99.90
18721;DHT22;9489;50.948;3.114;2024-03-02T08:16:20;6.60;99.90
18721;DHT22;9489;50.948;3.114;2024-03-02T08:18:49;6.70;99.90
18721;DHT22;9489;50.948;3.114;2024-03-02T08:21:16;6.80;99.90
18721;DHT22;9489;50.948;3.114;2024-03-02T08:23:42;6.90;99.90
18721;DHT22;9489;50.948;3.114;2024-03-02T08:26:09;7.00;99.90
18721;DHT22;9489;50.948;3.114;2024-03-02T08:28:35;7.00;99.90
18721;DHT22;9489;50.948;3.114;2024-03-02T08:31:02;7.20;99.90
18721;DHT22;9489;50.948;3.114;2024-03-02T08:33:28;7.50;99.90
18721;DHT22;9489;50.948;3.114;2024-03-02T08:35:54;7.80;99.90
18721;DHT22;9489;50.948;3.114;2024-03-02T08:38:19;7.80;99.90
18721;DHT22;9489;50.948;3.114;2024-03-02T08:40:45;7.90;99.90
18721;DHT22;9489;50.948;3.114;2024-03-02T08:43:11;8.10;99.90
18721;DHT22;9489;50.948;3.114;2024-03-02T08:45:37;8.30;99.90
18721;DHT22;9489;50.948;3.114;2024-03-02T08:48:08;8.50;99.90
18721;DHT22;9489;50.948;3.114;2024-03-02T08:50:35;8.70;99.90
18721;DHT22;9489;50.948;3.114;2024-03-02T08:53:02;8.60;99.90
18721;DHT22;9489;50.948;3.114;2024-03-02T08:55:28;8.40;99.90
18721;DHT22;9489;50.948;3.114;2024-03-02T08:57:53;8.20;99.90
18721;DHT22;9489;50.948;3.114;2024-03-02T09:00:19;8.00;99.90
18721;DHT22;9489;50.948;3.114;2024-03-02T09:02:45;8.00;99.90
18721;DHT22;9489;50.948;3.114;2024-03-02T09:05:11;8.00;99.90
18721;DHT22;9489;50.948;3.114;2024-03-02T09:07:37;8.10;99.90
18721;DHT22;9489;50.948;3.114;2024-03-02T09:10:05;8.10;99.90
18721;DHT22;9489;50.948;3.114;2024-03-02T09:12:31;8.10;99.90
18721;DHT22;9489;50.948;3.114;2024-03-02T09:14:57;8.10;99.90
18721;DHT22;9489;50.948;3.114;2024-03-02T09:17:23;8.10;99.90
18721;DHT22;9489;50.948;3.114;2024-03-02T09:19:49;7.90;99.90
18721;DHT22;9489;50.948;3.114;2024-03-02T09:22:19;7.90;99.90
18721;DHT22;9489;50.948;3.114;2024-03-02T09:24:44;7.80;99.90
18721;DHT22;9489;50.948;3.114;2024-03-02T09:27:10;7.80;99.90
18721;DHT22;9489;50.948;3.114;2024-03-02T09:29:35;7.80;99.90
18721;DHT22;9489;50.948;3.114;2024-03-02T09:32:01;7.90;99.90
18721;DHT22;9489;50.948;3.114;2024-03-02T09:34:27;7.90;99.90
18721;DHT22;9489;50.948;3.114;2024-03-02T09:36:53;8.00;99.90
18721;DHT22;9489;50.948;3.114;2024-03-02T09:39:19;8.10;99.90
18721;DHT22;9489;50.948;3.114;2024-03-02T09:41:45;8.10;99.90
18721;DHT22;9489;50.948;3.114;2024-03-02T09:44:10;8.20;99.90
18721;DHT22;9489;50.948;3.114;2024-03-02T09:46:36;8.10;99.90
18721;DHT22;9489;50.948;3.114;2024-03-02T09:49:02;8.10;99.90
18721;DHT22;9489;50.948;3.114;2024-03-02T09:51:28;8.10;99.90
18721;DHT22;9489;50.948;3.114;2024-03-02T09:53:55;8.10;99.90
18721;DHT22;9489;50.948;3.114;2024-03-02T09:56:21;8.20;99.90
18721;DHT22;9489;50.948;3.114;2024-03-02T09:58:47;8.30;99.90
18721;DHT22;9489;50.948;3.114;2024-03-02T10:01:13;8.40;99.90
18721;DHT22;9489;50.948;3.114;2024-03-02T10:03:39;8.50;99.90
18721;DHT22;9489;50.948;3.114;2024-03-02T10:06:23;8.70;99.90
18721;DHT22;9489;50.948;3.114;2024-03-02T10:08:50;8.90;99.90
18721;DHT22;9489;50.948;3.114;2024-03-02T10:11:33;9.10;99.90
18721;DHT22;9489;50.948;3.114;2024-03-02T10:14:11;9.50;99.90
18721;DHT22;9489;50.948;3.114;2024-03-02T10:16:42;9.70;99.90
18721;DHT22;9489;50.948;3.114;2024-03-02T10:21:54;9.60;99.90
18721;DHT22;9489;50.948;3.114;2024-03-02T10:24:21;9.40;99.90
18721;DHT22;9489;50.948;3.114;2024-03-02T10:26:48;9.30;99.90
18721;DHT22;9489;50.948;3.114;2024-03-02T10:29:14;9.30;99.90
18721;DHT22;9489;50.948;3.114;2024-03-02T10:31:41;9.30;99.90
18721;DHT22;9489;50.948;3.114;2024-03-02T10:34:10;9.50;99.90
18721;DHT22;9489;50.948;3.114;2024-03-02T10:36:37;9.90;99.90
18721;DHT22;9489;50.948;3.114;2024-03-02T10:39:07;10.00;99.90
18721;DHT22;9489;50.948;3.114;2024-03-02T10:41:37;10.20;99.90
18721;DHT22;9489;50.948;3.114;2024-03-02T10:44:04;10.60;99.90
18721;DHT22;9489;50.948;3.114;2024-03-02T10:46:32;10.60;99.90
18721;DHT22;9489;50.948;3.114;2024-03-02T10:49:00;10.30;99.90
18721;DHT22;9489;50.948;3.114;2024-03-02T10:51:27;10.30;99.90
18721;DHT22;9489;50.948;3.114;2024-03-02T10:53:54;10.20;99.90
18721;DHT22;9489;50.948;3.114;2024-03-02T10:56:40;9.90;99.90
18721;DHT22;9489;50.948;3.114;2024-03-02T11:01:57;9.70;99.90
18721;DHT22;9489;50.948;3.114;2024-03-02T11:04:27;10.00;99.90
18721;DHT22;9489;50.948;3.114;2024-03-02T11:07:05;10.50;99.90
18721;DHT22;9489;50.948;3.114;2024-03-02T11:09:34;11.20;99.90
18721;DHT22;9489;50.948;3.114;2024-03-02T11:12:03;11.80;99.90
18721;DHT22;9489;50.948;3.114;2024-03-02T11:14:32;12.40;99.90
18721;DHT22;9489;50.948;3.114;2024-03-02T11:17:03;12.40;99.90
18721;DHT22;9489;50.948;3.114;2024-03-02T11:19:29;11.90;99.90
18721;DHT22;9489;50.948;3.114;2024-03-02T11:21:56;11.10;99.90
18721;DHT22;9489;50.948;3.114;2024-03-02T11:26:53;10.30;99.90
18721;DHT22;9489;50.948;3.114;2024-03-02T11:32:05;10.20;99.90
18721;DHT22;9489;50.948;3.114;2024-03-02T11:34:32;10.10;99.90
18721;DHT22;9489;50.948;3.114;2024-03-02T11:37:00;10.00;99.90
18721;DHT22;9489;50.948;3.114;2024-03-02T11:39:27;10.00;99.90
18721;DHT22;9489;50.948;3.114;2024-03-02T11:41:53;10.00;99.90
18721;DHT22;9489;50.948;3.114;2024-03-02T11:44:19;9.90;99.90
18721;DHT22;9489;50.948;3.114;2024-03-02T11:47:14;9.90;99.90
18721;DHT22;9489;50.948;3.114;2024-03-02T11:49:50;9.80;99.90
18721;DHT22;9489;50.948;3.114;2024-03-02T11:52:17;9.80;99.90
18721;DHT22;9489;50.948;3.114;2024-03-02T11:54:46;9.80;99.90
18721;DHT22;9489;50.948;3.114;2024-03-02T11:57:22;9.80;99.90
18721;DHT22;9489;50.948;3.114;2024-03-02T11:59:49;9.80;99.90
18721;DHT22;9489;50.948;3.114;2024-03-02T12:02:19;9.80;99.90
18721;DHT22;9489;50.948;3.114;2024-03-02T12:04:46;9.70;99.90
18721;DHT22;9489;50.948;3.114;2024-03-02T12:07:22;9.70;99.90
18721;DHT22;9489;50.948;3.114;2024-03-02T12:09:48;9.60;99.90
18721;DHT22;9489;50.948;3.114;2024-03-02T12:12:14;9.40;99.90
18721;DHT22;9489;50.948;3.114;2024-03-02T12:14:51;9.30;99.90
18721;DHT22;9489;50.948;3.114;2024-03-02T12:17:18;9.20;99.90
18721;DHT22;9489;50.948;3.114;2024-03-02T12:19:44;9.10;99.90
18721;DHT22;9489;50.948;3.114;2024-03-02T12:22:11;9.10;99.90
18721;DHT22;9489;50.948;3.114;2024-03-02T12:24:37;9.10;99.90
18721;DHT22;9489;50.948;3.114;2024-03-02T12:27:04;9.00;99.90
18721;DHT22;9489;50.948;3.114;2024-03-02T12:29:30;9.00;99.90
18721;DHT22;9489;50.948;3.114;2024-03-02T12:31:56;9.00;99.90
18721;DHT22;9489;50.948;3.114;2024-03-02T12:34:22;9.00;99.90
18721;DHT22;9489;50.948;3.114;2024-03-02T12:36:49;9.00;99.90
18721;DHT22;9489;50.948;3.114;2024-03-02T12:39:18;9.10;99.90
18721;DHT22;9489;50.948;3.114;2024-03-02T12:41:43;9.00;99.90
18721;DHT22;9489;50.948;3.114;2024-03-02T12:44:09;8.90;99.90
18721;DHT22;9489;50.948;3.114;2024-03-02T12:46:35;8.90;99.90
18721;DHT22;9489;50.948;3.114;2024-03-02T12:49:11;8.90;99.90
18721;DHT22;9489;50.948;3.114;2024-03-02T12:51:40;8.80;99.90
18721;DHT22;9489;50.948;3.114;2024-03-02T12:54:10;8.80;99.90
18721;DHT22;9489;50.948;3.114;2024-03-02T12:56:37;8.80;99.90
18721;DHT22;9489;50.948;3.114;2024-03-02T12:59:03;8.80;99.90
18721;DHT22;9489;50.948;3.114;2024-03-02T13:01:29;8.90;99.90
18721;DHT22;9489;50.948;3.114;2024-03-02T13:03:57;8.90;99.90
18721;DHT22;9489;50.948;3.114;2024-03-02T13:06:23;8.90;99.90
18721;DHT22;9489;50.948;3.114;2024-03-02T13:08:50;9.00;99.90
18721;DHT22;9489;50.948;3.114;2024-03-02T13:11:16;9.00;99.90
18721;DHT22;9489;50.948;3.114;2024-03-02T13:13:42;9.00;99.90
18721;DHT22;9489;50.948;3.114;2024-03-02T13:16:12;9.20;99.90
18721;DHT22;9489;50.948;3.114;2024-03-02T13:18:41;9.30;99.90
18721;DHT22;9489;50.948;3.114;2024-03-02T13:21:07;9.30;99.90
18721;DHT22;9489;50.948;3.114;2024-03-02T13:23:33;9.30;99.90
18721;DHT22;9489;50.948;3.114;2024-03-02T13:25:59;9.40;99.90
18721;DHT22;9489;50.948;3.114;2024-03-02T13:28:25;9.60;99.90
18721;DHT22;9489;50.948;3.114;2024-03-02T13:30:51;9.80;99.90
18721;DHT22;9489;50.948;3.114;2024-03-02T13:33:16;9.80;99.90
18721;DHT22;9489;50.948;3.114;2024-03-02T13:35:50;9.80;99.90
18721;DHT22;9489;50.948;3.114;2024-03-02T13:38:18;9.60;99.90
18721;DHT22;9489;50.948;3.114;2024-03-02T13:40:44;9.50;99.90
18721;DHT22;9489;50.948;3.114;2024-03-02T13:43:10;9.50;99.90
18721;DHT22;9489;50.948;3.114;2024-03-02T13:45:36;9.50;99.90
18721;DHT22;9489;50.948;3.114;2024-03-02T13:48:02;9.50;99.90
18721;DHT22;9489;50.948;3.114;2024-03-02T13:50:28;9.40;99.90
18721;DHT22;9489;50.948;3.114;2024-03-02T13:52:55;9.40;99.90
18721;DHT22;9489;50.948;3.114;2024-03-02T13:55:22;9.40;99.90
18721;DHT22;9489;50.948;3.114;2024-03-02T13:57:48;9.40;99.90
18721;DHT22;9489;50.948;3.114;2024-03-02T14:00:16;9.40;99.90
18721;DHT22;9489;50.948;3.114;2024-03-02T14:02:43;9.30;99.90
18721;DHT22;9489;50.948;3.114;2024-03-02T14:05:08;9.20;99.90
18721;DHT22;9489;50.948;3.114;2024-03-02T14:07:41;9.10;99.90
18721;DHT22;9489;50.948;3.114;2024-03-02T14:10:07;9.00;99.90
18721;DHT22;9489;50.948;3.114;2024-03-02T14:12:32;9.00;99.90
18721;DHT22;9489;50.948;3.114;2024-03-02T14:14:58;9.00;99.90
18721;DHT22;9489;50.948;3.114;2024-03-02T14:17:25;9.00;99.90
18721;DHT22;9489;50.948;3.114;2024-03-02T14:19:50;9.00;99.90
18721;DHT22;9489;50.948;3.114;2024-03-02T14:22:17;9.00;99.90
18721;DHT22;9489;50.948;3.114;2024-03-02T14:24:43;9.00;99.90
18721;DHT22;9489;50.948;3.114;2024-03-02T14:27:09;9.00;99.90
18721;DHT22;9489;50.948;3.114;2024-03-02T14:29:35;9.00;99.90
18721;DHT22;9489;50.948;3.114;2024-03-02T14:32:03;9.00;99.90
18721;DHT22;9489;50.948;3.114;2024-03-02T14:34:29;8.90;99.90
18721;DHT22;9489;50.948;3.114;2024-03-02T14:36:55;8.90;99.90
18721;DHT22;9489;50.948;3.114;2024-03-02T14:39:21;8.90;99.90
18721;DHT22;9489;50.948;3.114;2024-03-02T14:41:46;8.90;99.90
18721;DHT22;9489;50.948;3.114;2024-03-02T14:44:12;8.90;99.90
18721;DHT22;9489;50.948;3.114;2024-03-02T14:46:38;8.90;99.90
18721;DHT22;9489;50.948;3.114;2024-03-02T14:49:04;8.80;99.90
18721;DHT22;9489;50.948;3.114;2024-03-02T14:51:29;8.80;99.90
18721;DHT22;9489;50.948;3.114;2024-03-02T14:53:55;8.80;99.90
18721;DHT22;9489;50.948;3.114;2024-03-02T14:56:21;8.80;99.90
18721;DHT22;9489;50.948;3.114;2024-03-02T14:58:47;8.80;99.90
18721;DHT22;9489;50.948;3.114;2024-03-02T15:01:13;8.80;99.90
18721;DHT22;9489;50.948;3.114;2024-03-02T15:03:40;8.80;99.90
18721;DHT22;9489;50.948;3.114;2024-03-02T15:06:05;8.70;99.90
18721;DHT22;9489;50.948;3.114;2024-03-02T15:08:33;8.60;99.90
18721;DHT22;9489;50.948;3.114;2024-03-02T15:10:58;8.60;99.90
18721;DHT22;9489;50.948;3.114;2024-03-02T15:13:26;8.60;99.90
18721;DHT22;9489;50.948;3.114;2024-03-02T15:15:52;8.60;99.90
18721;DHT22;9489;50.948;3.114;2024-03-02T15:18:18;8.60;99.90
18721;DHT22;9489;50.948;3.114;2024-03-02T15:20:47;8.60;99.90
18721;DHT22;9489;50.948;3.114;2024-03-02T15:23:19;8.60;99.90
18721;DHT22;9489;50.948;3.114;2024-03-02T15:25:45;8.60;99.90
18721;DHT22;9489;50.948;3.114;2024-03-02T15:28:11;8.60;99.90
18721;DHT22;9489;50.948;3.114;2024-03-02T15:30:36;8.60;99.90
18721;DHT22;9489;50.948;3.114;2024-03-02T15:33:02;8.70;99.90
18721;DHT22;9489;50.948;3.114;2024-03-02T15:35:28;8.70;99.90
18721;DHT22;9489;50.948;3.114;2024-03-02T15:37:54;8.70;99.90
18721;DHT22;9489;50.948;3.114;2024-03-02T15:40:20;8.70;99.90
18721;DHT22;9489;50.948;3.114;2024-03-02T15:42:45;8.60;99.90
18721;DHT22;9489;50.948;3.114;2024-03-02T15:45:11;8.70;99.90
18721;DHT22;9489;50.948;3.114;2024-03-02T15:47:37;8.60;99.90
18721;DHT22;9489;50.948;3.114;2024-03-02T15:50:03;8.60;99.90
18721;DHT22;9489;50.948;3.114;2024-03-02T15:52:32;8.70;99.90
18721;DHT22;9489;50.948;3.114;2024-03-02T15:54:58;8.60;99.90
18721;DHT22;9489;50.948;3.114;2024-03-02T15:57:23;8.60;99.90
18721;DHT22;9489;50.948;3.114;2024-03-02T15:59:49;8.70;99.90
18721;DHT22;9489;50.948;3.114;2024-03-02T16:02:15;8.60;99.90
18721;DHT22;9489;50.948;3.114;2024-03-02T16:04:41;8.60;99.90
18721;DHT22;9489;50.948;3.114;2024-03-02T16:07:07;8.60;99.90
18721;DHT22;9489;50.948;3.114;2024-03-02T16:09:33;8.60;99.90
18721;DHT22;9489;50.948;3.114;2024-03-02T16:11:58;8.70;99.90
18721;DHT22;9489;50.948;3.114;2024-03-02T16:14:24;8.60;99.90